createdAt,value
2022-12-08T00:00:50.908Z,5.43
2022-12-08T00:03:18.378Z,5.90
2022-12-08T00:06:05.264Z,5.85
2022-12-08T00:08:50.697Z,4.03
2022-12-08T00:11:17.987Z,4.07
2022-12-08T00:13:44.736Z,3.47
2022-12-08T00:16:11.827Z,3.08
2022-12-08T00:18:38.653Z,3.03
2022-12-08T00:21:05.612Z,2.97
2022-12-08T00:23:32.360Z,2.58
2022-12-08T00:26:03.942Z,2.70
2022-12-08T00:28:31.930Z,2.53
2022-12-08T00:30:58.827Z,3.70
2022-12-08T00:33:28.679Z,2.50
2022-12-08T00:35:55.391Z,2.90
2022-12-08T00:38:22.174Z,2.63
2022-12-08T00:40:48.879Z,2.70
2022-12-08T00:43:15.630Z,2.90
2022-12-08T00:45:43.101Z,2.90
2022-12-08T00:48:09.889Z,2.67
2022-12-08T00:50:36.678Z,2.60
2022-12-08T00:53:03.407Z,2.75
2022-12-08T00:55:30.181Z,3.08
2022-12-08T00:57:56.874Z,3.43
2022-12-08T01:00:23.638Z,4.95
2022-12-08T01:02:50.415Z,5.45
2022-12-08T01:05:17.223Z,6.65
2022-12-08T01:07:44.020Z,6.70
2022-12-08T01:10:10.885Z,7.25
2022-12-08T01:12:37.740Z,7.80
2022-12-08T01:15:04.792Z,8.18
2022-12-08T01:17:31.518Z,6.60
2022-12-08T01:19:58.298Z,8.18
2022-12-08T01:22:25.779Z,8.80
2022-12-08T01:24:52.541Z,8.20
2022-12-08T01:27:19.375Z,7.38
2022-12-08T01:29:46.119Z,7.43
2022-12-08T01:32:12.889Z,6.90
2022-12-08T01:34:39.743Z,7.28
2022-12-08T01:37:06.935Z,7.22
2022-12-08T01:39:33.629Z,7.25
2022-12-08T01:42:00.379Z,6.63
2022-12-08T01:44:27.138Z,6.88
2022-12-08T01:46:54.485Z,6.28
2022-12-08T01:49:27.412Z,6.93
2022-12-08T01:52:14.045Z,7.45
2022-12-08T01:54:50.875Z,6.68
2022-12-08T01:57:26.935Z,6.72
2022-12-08T02:00:01.085Z,7.88
2022-12-08T02:02:42.071Z,6.75
2022-12-08T02:05:09.968Z,7.70
2022-12-08T02:07:37.143Z,8.00
2022-12-08T02:10:05.189Z,7.03
2022-12-08T02:12:32.352Z,7.30
2022-12-08T02:15:04.849Z,6.35
2022-12-08T02:17:41.019Z,7.57
2022-12-08T02:20:46.618Z,6.82
2022-12-08T02:23:34.539Z,6.70
2022-12-08T02:26:38.765Z,6.97
2022-12-08T02:29:48.462Z,6.80
2022-12-08T02:32:36.711Z,6.50
2022-12-08T02:35:21.278Z,6.68
2022-12-08T02:38:00.071Z,6.50
2022-12-08T02:40:44.865Z,6.70
2022-12-08T02:43:45.495Z,6.88
2022-12-08T02:46:18.152Z,7.38
2022-12-08T02:48:45.380Z,6.75
2022-12-08T02:51:12.095Z,7.03
2022-12-08T02:53:39.214Z,7.20
2022-12-08T02:56:14.944Z,7.00
2022-12-08T02:59:02.903Z,6.53
2022-12-08T03:01:57.493Z,7.35
2022-12-08T03:04:43.609Z,6.95
2022-12-08T03:07:35.699Z,8.80
2022-12-08T03:10:08.689Z,8.77
2022-12-08T03:12:48.927Z,7.28
2022-12-08T03:15:19.727Z,6.60
2022-12-08T03:17:51.875Z,7.20
2022-12-08T03:20:26.522Z,7.10
2022-12-08T03:22:58.467Z,7.05
2022-12-08T03:25:27.510Z,6.43
2022-12-08T03:27:54.415Z,7.03
2022-12-08T03:30:21.155Z,6.30
2022-12-08T03:32:54.815Z,6.43
2022-12-08T03:35:28.482Z,7.47
2022-12-08T03:38:07.545Z,8.80
2022-12-08T03:40:34.620Z,7.80
2022-12-08T03:43:01.374Z,8.55
2022-12-08T03:45:28.672Z,7.50
2022-12-08T03:47:55.426Z,7.82
2022-12-08T03:50:22.827Z,7.43
2022-12-08T03:52:49.835Z,8.23
2022-12-08T03:55:17.131Z,10.68
2022-12-08T03:57:46.929Z,7.87
2022-12-08T04:00:16.509Z,6.70
2022-12-08T04:02:43.371Z,7.40
2022-12-08T04:05:10.175Z,7.63
2022-12-08T04:07:37.034Z,7.00
2022-12-08T04:10:04.992Z,6.47
2022-12-08T04:12:32.128Z,6.22
2022-12-08T04:14:58.923Z,6.88
2022-12-08T04:17:25.744Z,7.68
2022-12-08T04:19:52.504Z,7.88
2022-12-08T04:22:19.226Z,8.00
2022-12-08T04:24:46.032Z,7.97
2022-12-08T04:27:12.777Z,9.40
2022-12-08T04:29:39.543Z,8.75
2022-12-08T04:32:06.236Z,8.63
2022-12-08T04:34:32.990Z,8.70
2022-12-08T04:36:59.883Z,8.75
2022-12-08T04:39:26.600Z,10.30
2022-12-08T04:41:53.370Z,9.00
2022-12-08T04:44:20.124Z,8.32
2022-12-08T04:46:46.872Z,7.70
2022-12-08T04:49:13.705Z,6.35
2022-12-08T04:51:40.431Z,6.15
2022-12-08T04:54:07.190Z,8.48
2022-12-08T04:56:34.066Z,14.57
2022-12-08T04:59:00.792Z,18.07
2022-12-08T05:01:27.532Z,17.60
2022-12-08T05:03:54.315Z,16.00
2022-12-08T05:06:20.988Z,9.90
2022-12-08T05:08:47.749Z,7.75
2022-12-08T05:11:14.432Z,8.00
2022-12-08T05:13:41.224Z,8.32
2022-12-08T05:16:13.466Z,8.98
2022-12-08T05:18:41.460Z,9.82
2022-12-08T05:21:08.272Z,9.85
2022-12-08T05:23:35.348Z,11.47
2022-12-08T05:26:02.311Z,10.90
2022-12-08T05:28:44.483Z,9.98
2022-12-08T05:31:13.707Z,9.98
2022-12-08T05:33:40.946Z,10.25
2022-12-08T05:36:08.564Z,10.03
2022-12-08T05:38:35.499Z,9.20
2022-12-08T05:41:02.329Z,10.27
2022-12-08T05:43:29.182Z,14.55
2022-12-08T05:45:56.049Z,22.40
2022-12-08T05:48:22.778Z,13.27
2022-12-08T05:50:50.704Z,10.77
2022-12-08T05:53:19.065Z,9.85
2022-12-08T05:55:46.287Z,9.40
2022-12-08T05:58:18.667Z,8.23
2022-12-08T06:00:46.849Z,8.67
2022-12-08T06:03:15.231Z,9.68
2022-12-08T06:05:44.414Z,8.95
2022-12-08T06:08:11.383Z,9.52
2022-12-08T06:10:40.043Z,9.00
2022-12-08T06:13:06.829Z,8.27
2022-12-08T06:15:37.663Z,8.68
2022-12-08T06:18:05.220Z,8.48
2022-12-08T06:20:32.161Z,8.68
2022-12-08T06:22:58.925Z,9.23
2022-12-08T06:25:25.921Z,8.80
2022-12-08T06:27:52.640Z,7.97
2022-12-08T06:30:20.445Z,8.52
2022-12-08T06:32:47.245Z,8.55
2022-12-08T06:35:13.988Z,7.72
2022-12-08T06:37:40.770Z,8.75
2022-12-08T06:40:08.227Z,6.32
2022-12-08T06:42:44.100Z,6.13
2022-12-08T06:45:12.922Z,6.68
2022-12-08T06:47:39.666Z,7.63
2022-12-08T06:50:10.897Z,6.47
2022-12-08T06:52:47.278Z,5.50
2022-12-08T06:55:35.461Z,5.18
2022-12-08T06:58:03.330Z,4.30
2022-12-08T07:00:30.309Z,3.75
2022-12-08T07:02:57.265Z,3.43
2022-12-08T07:05:24.400Z,3.17
2022-12-08T07:07:51.178Z,3.15
2022-12-08T07:10:18.099Z,3.10
2022-12-08T07:12:45.191Z,2.90
2022-12-08T07:15:11.954Z,2.80
2022-12-08T07:17:38.704Z,3.00
2022-12-08T07:20:06.534Z,3.65
2022-12-08T07:22:33.678Z,2.80
2022-12-08T07:25:00.482Z,3.58
2022-12-08T07:27:27.258Z,3.07
2022-12-08T07:29:53.933Z,3.13
2022-12-08T07:32:20.733Z,3.20
2022-12-08T07:34:47.503Z,4.22
2022-12-08T07:37:14.482Z,5.80
2022-12-08T07:39:41.259Z,5.38
2022-12-08T07:42:07.969Z,5.10
2022-12-08T07:44:36.883Z,5.32
2022-12-08T07:47:03.607Z,5.35
2022-12-08T07:49:30.358Z,5.82
2022-12-08T07:51:57.345Z,5.17
2022-12-08T07:54:24.343Z,5.38
2022-12-08T07:56:51.078Z,5.68
2022-12-08T07:59:17.851Z,7.68
2022-12-08T08:01:45.573Z,7.57
2022-12-08T08:04:12.661Z,5.80
2022-12-08T08:06:39.557Z,5.03
2022-12-08T08:09:06.386Z,8.23
2022-12-08T08:11:33.284Z,10.90
2022-12-08T08:14:00.102Z,10.73
2022-12-08T08:16:28.571Z,6.35
2022-12-08T08:18:57.826Z,7.15
2022-12-08T08:24:11.565Z,3.33
2022-12-08T08:26:38.301Z,4.28
2022-12-08T08:29:05.175Z,4.22
2022-12-08T08:31:31.911Z,4.55
2022-12-08T08:34:00.647Z,3.90
2022-12-08T08:36:27.352Z,3.70
2022-12-08T08:38:54.123Z,4.72
2022-12-08T08:41:20.841Z,3.50
2022-12-08T08:43:47.659Z,4.20
2022-12-08T08:46:14.430Z,3.65
2022-12-08T08:48:41.138Z,4.50
2022-12-08T08:51:12.757Z,4.28
2022-12-08T08:53:39.576Z,6.60
2022-12-08T08:56:16.761Z,4.80
2022-12-08T08:58:43.513Z,4.60
2022-12-08T09:01:15.566Z,4.35
2022-12-08T09:03:42.343Z,4.25
2022-12-08T09:06:09.132Z,3.95
2022-12-08T09:08:35.893Z,4.97
2022-12-08T09:11:02.711Z,4.65
2022-12-08T09:13:29.504Z,4.32
2022-12-08T09:15:56.379Z,4.57
2022-12-08T09:18:23.170Z,4.60
2022-12-08T09:20:49.903Z,4.75
2022-12-08T09:23:16.667Z,5.30
2022-12-08T09:25:46.836Z,4.70
2022-12-08T09:28:14.905Z,4.53
2022-12-08T09:30:42.379Z,4.97
2022-12-08T09:33:09.123Z,4.28
2022-12-08T09:35:35.847Z,4.70
2022-12-08T09:38:02.750Z,4.65
2022-12-08T09:40:32.962Z,5.05
2022-12-08T09:43:33.140Z,4.53
2022-12-08T09:46:00.692Z,4.82
2022-12-08T09:48:44.619Z,4.88
2022-12-08T09:51:14.527Z,5.10
2022-12-08T09:53:54.753Z,4.70
2022-12-08T09:56:32.961Z,4.90
2022-12-08T09:59:11.875Z,5.00
2022-12-08T10:01:42.060Z,4.97
2022-12-08T10:04:22.180Z,4.13
2022-12-08T10:07:02.581Z,4.63
2022-12-08T10:09:42.277Z,5.00
2022-12-08T10:12:42.206Z,4.70
2022-12-08T10:15:33.087Z,4.55
2022-12-08T10:18:02.789Z,4.53
2022-12-08T10:20:41.930Z,4.75
2022-12-08T10:23:15.625Z,4.57
2022-12-08T10:25:52.022Z,4.78
2022-12-08T10:28:18.691Z,4.78
2022-12-08T10:30:47.476Z,4.80
2022-12-08T10:33:20.349Z,4.70
2022-12-08T10:35:50.519Z,4.32
2022-12-08T10:38:35.680Z,4.72
2022-12-08T10:41:10.193Z,4.30
2022-12-08T10:43:46.278Z,4.30
2022-12-08T10:46:18.017Z,4.88
2022-12-08T10:48:54.040Z,4.85
2022-12-08T10:51:49.848Z,4.72
2022-12-08T10:54:33.762Z,4.30
2022-12-08T10:57:00.460Z,4.35
2022-12-08T10:59:27.238Z,4.78
2022-12-08T11:01:55.741Z,4.38
2022-12-08T11:04:42.775Z,4.35
2022-12-08T11:07:11.675Z,4.38
2022-12-08T11:09:48.989Z,4.85
2022-12-08T11:12:20.312Z,5.20
2022-12-08T11:14:59.109Z,5.20
2022-12-08T11:17:28.370Z,4.93
2022-12-08T11:20:01.867Z,5.55
2022-12-08T11:22:34.184Z,5.50
2022-12-08T11:25:21.501Z,6.00
2022-12-08T11:27:52.718Z,5.88
2022-12-08T11:30:24.181Z,5.60
2022-12-08T11:33:05.514Z,5.45
2022-12-08T11:35:39.163Z,5.55
2022-12-08T11:38:30.660Z,5.90
2022-12-08T11:41:00.037Z,5.38
2022-12-08T11:43:29.711Z,5.93
2022-12-08T11:46:00.320Z,5.30
2022-12-08T11:48:35.600Z,5.63
2022-12-08T11:51:17.039Z,5.70
2022-12-08T11:53:55.740Z,6.03
2022-12-08T11:56:29.763Z,5.05
2022-12-08T11:59:00.757Z,6.03
2022-12-08T12:01:27.725Z,6.15
2022-12-08T12:04:23.594Z,6.10
2022-12-08T12:07:26.410Z,5.90
2022-12-08T12:10:11.599Z,5.95
2022-12-08T12:12:40.976Z,6.03
2022-12-08T12:15:36.170Z,6.53
2022-12-08T12:18:19.270Z,6.20
2022-12-08T12:20:57.459Z,6.13
2022-12-08T12:23:44.946Z,6.35
2022-12-08T12:26:21.746Z,6.35
2022-12-08T12:29:11.155Z,7.05
2022-12-08T12:31:41.655Z,5.95
2022-12-08T12:34:27.179Z,6.68
2022-12-08T12:37:25.456Z,5.97
2022-12-08T12:39:52.124Z,6.20
2022-12-08T12:42:41.943Z,6.15
2022-12-08T12:45:17.595Z,6.55
2022-12-08T12:47:48.646Z,6.40
2022-12-08T12:50:49.007Z,6.75
2022-12-08T12:53:15.732Z,6.70
2022-12-08T12:55:45.744Z,6.65
2022-12-08T12:58:29.562Z,6.82
2022-12-08T13:01:14.171Z,6.60
2022-12-08T13:03:47.320Z,6.82
2022-12-08T13:06:15.578Z,6.90
2022-12-08T13:08:54.947Z,6.97
2022-12-08T13:11:23.321Z,7.00
2022-12-08T13:13:57.859Z,7.85
2022-12-08T13:16:26.761Z,7.53
2022-12-08T13:18:58.471Z,7.35
2022-12-08T13:21:34.568Z,7.10
2022-12-08T13:24:10.299Z,7.57
2022-12-08T13:27:05.200Z,7.30
2022-12-08T13:29:33.400Z,7.35
2022-12-08T13:32:04.968Z,7.00
2022-12-08T13:34:45.540Z,7.43
2022-12-08T13:37:12.322Z,6.78
2022-12-08T13:39:38.957Z,7.45
2022-12-08T13:42:35.780Z,7.50
2022-12-08T13:45:58.973Z,7.50
2022-12-08T13:48:31.174Z,7.72
2022-12-08T13:57:10.209Z,7.68
2022-12-08T13:59:44.223Z,8.63
2022-12-08T14:02:27.994Z,8.23
2022-12-08T14:07:43.708Z,8.65
2022-12-08T14:10:18.146Z,7.85
2022-12-08T14:12:48.265Z,8.88
2022-12-08T14:15:16.260Z,9.40
2022-12-08T14:17:52.237Z,9.45
2022-12-08T14:20:31.107Z,9.38
2022-12-08T14:23:01.504Z,9.32
2022-12-08T14:25:29.504Z,9.93
2022-12-08T14:28:01.844Z,10.05
2022-12-08T14:30:32.628Z,9.18
2022-12-08T14:33:02.122Z,9.88
2022-12-08T14:35:29.888Z,10.32
2022-12-08T14:38:00.138Z,9.82
2022-12-08T14:40:35.997Z,10.27
2022-12-08T14:43:13.529Z,10.00
2022-12-08T14:45:40.218Z,9.35
2022-12-08T14:48:25.974Z,10.38
2022-12-08T14:51:06.918Z,9.93
2022-12-08T14:53:37.754Z,9.45
2022-12-08T14:56:22.876Z,9.13
2022-12-08T14:59:03.108Z,8.40
2022-12-08T15:01:30.615Z,9.75
2022-12-08T15:04:17.184Z,9.25
2022-12-08T15:06:53.785Z,11.75
2022-12-08T15:09:38.835Z,15.05
2022-12-08T15:12:12.731Z,17.95
2022-12-08T15:15:08.799Z,13.50
2022-12-08T15:17:44.954Z,11.32
2022-12-08T15:20:35.038Z,10.65
2022-12-08T15:23:03.031Z,10.57
2022-12-08T15:25:30.089Z,13.63
2022-12-08T15:27:58.028Z,10.68
2022-12-08T15:30:28.589Z,10.65
2022-12-08T15:32:56.298Z,10.77
2022-12-08T15:35:23.462Z,10.93
2022-12-08T15:37:50.369Z,11.45
2022-12-08T15:40:19.637Z,11.65
2022-12-08T15:42:46.540Z,13.80
2022-12-08T15:45:14.514Z,14.82
2022-12-08T15:47:42.273Z,15.68
2022-12-08T15:50:20.921Z,15.47
2022-12-08T15:52:49.309Z,16.92
2022-12-08T15:55:21.152Z,24.58
2022-12-08T15:58:44.990Z,22.90
2022-12-08T16:00:56.953Z,19.30
2022-12-08T16:09:23.508Z,12.05
2022-12-08T16:12:10.325Z,12.95
2022-12-08T16:17:27.588Z,18.00
2022-12-08T16:19:54.910Z,61.65
2022-12-08T16:25:18.737Z,42.90
2022-12-08T16:28:12.271Z,32.55
2022-12-08T16:30:33.526Z,23.17
2022-12-08T16:33:00.403Z,18.23
2022-12-08T16:35:27.195Z,19.55
2022-12-08T16:37:53.980Z,18.60
2022-12-08T16:40:21.096Z,20.48
2022-12-08T16:42:49.917Z,20.67
2022-12-08T16:45:21.053Z,19.52
2022-12-08T16:47:59.049Z,17.88
2022-12-08T16:50:28.633Z,17.45
2022-12-08T16:53:01.794Z,17.23
2022-12-08T16:55:28.758Z,16.33
2022-12-08T16:57:56.106Z,15.38
2022-12-08T17:00:27.737Z,15.52
2022-12-08T17:02:55.385Z,17.90
2022-12-08T17:05:25.414Z,16.50
2022-12-08T17:07:54.283Z,17.97
2022-12-08T17:10:27.241Z,16.85
2022-12-08T17:12:55.492Z,17.52
2022-12-08T17:15:25.749Z,17.33
2022-12-08T17:17:53.107Z,17.27
2022-12-08T17:20:23.900Z,16.90
2022-12-08T17:22:53.249Z,17.05
2022-12-08T17:25:20.179Z,16.77
2022-12-08T17:27:47.078Z,16.50
2022-12-08T17:30:16.358Z,17.88
2022-12-08T17:32:43.849Z,15.70
2022-12-08T17:35:11.584Z,17.45
2022-12-08T17:37:38.359Z,15.82
2022-12-08T17:40:06.693Z,18.15
2022-12-08T17:42:35.013Z,17.23
2022-12-08T17:45:02.543Z,17.87
2022-12-08T17:47:29.925Z,19.38
2022-12-08T17:49:56.944Z,17.58
2022-12-08T17:52:24.184Z,17.98
2022-12-08T17:54:51.427Z,15.60
2022-12-08T17:57:18.252Z,15.97
2022-12-08T17:59:45.234Z,17.30
2022-12-08T18:02:12.182Z,17.58
2022-12-08T18:04:39.105Z,17.50
2022-12-08T18:07:05.911Z,17.08
2022-12-08T18:09:33.732Z,17.03
2022-12-08T18:12:00.537Z,14.65
2022-12-08T18:14:27.495Z,14.68
2022-12-08T18:16:54.345Z,16.15
2022-12-08T18:19:21.318Z,15.48
2022-12-08T18:21:48.104Z,14.70
2022-12-08T18:24:22.159Z,17.23
2022-12-08T18:26:52.191Z,20.40
2022-12-08T18:29:20.096Z,18.88
2022-12-08T18:31:46.839Z,16.85
2022-12-08T18:34:13.759Z,15.03
2022-12-08T18:36:40.509Z,12.52
2022-12-08T18:39:10.776Z,17.17
2022-12-08T18:41:37.971Z,16.75
2022-12-08T18:44:04.961Z,16.63
2022-12-08T18:46:31.781Z,14.17
2022-12-08T18:48:59.411Z,14.73
2022-12-08T18:51:26.435Z,15.13
2022-12-08T18:53:53.429Z,16.05
2022-12-08T18:56:31.917Z,16.80
2022-12-08T18:59:03.706Z,15.03
2022-12-08T19:01:33.019Z,15.20
2022-12-08T19:06:48.124Z,13.43
2022-12-08T19:09:15.833Z,13.80
2022-12-08T19:11:43.062Z,13.90
2022-12-08T19:14:10.598Z,12.77
2022-12-08T19:16:38.163Z,13.80
2022-12-08T19:19:05.122Z,11.65
2022-12-08T19:21:32.884Z,11.80
2022-12-08T19:24:00.482Z,14.80
2022-12-08T19:26:28.630Z,14.57
2022-12-08T19:28:55.438Z,16.17
2022-12-08T19:31:23.240Z,15.52
2022-12-08T19:33:50.175Z,17.15
2022-12-08T19:36:19.981Z,17.53
2022-12-08T19:39:05.765Z,18.08
2022-12-08T19:41:51.507Z,18.60
2022-12-08T19:44:26.515Z,18.55
2022-12-08T19:46:53.370Z,20.50
2022-12-08T19:49:20.351Z,22.33
2022-12-08T19:51:47.127Z,17.52
2022-12-08T19:54:14.024Z,16.80
2022-12-08T19:56:40.864Z,15.90
2022-12-08T19:59:07.952Z,14.20
2022-12-08T20:01:34.797Z,13.60
2022-12-08T20:04:01.655Z,13.40
2022-12-08T20:06:28.434Z,13.70
2022-12-08T20:08:55.421Z,14.13
2022-12-08T20:11:22.280Z,16.95
2022-12-08T20:13:49.187Z,19.73
2022-12-08T20:16:17.245Z,26.27
2022-12-08T20:18:44.229Z,39.20
2022-12-08T20:21:12.343Z,37.33
2022-12-08T20:23:39.171Z,34.25
2022-12-08T20:26:08.279Z,29.30
2022-12-08T20:28:36.063Z,24.80
2022-12-08T20:31:04.287Z,18.00
2022-12-08T20:33:31.431Z,14.60
2022-12-08T20:36:03.662Z,14.70
2022-12-08T20:38:30.785Z,13.63
2022-12-08T20:40:58.681Z,13.50
2022-12-08T20:43:25.995Z,13.35
2022-12-08T20:45:52.794Z,13.05
2022-12-08T20:48:19.613Z,12.90
2022-12-08T20:50:46.375Z,13.17
2022-12-08T20:53:13.213Z,13.15
2022-12-08T20:55:41.943Z,13.35
2022-12-08T20:58:09.929Z,13.15
2022-12-08T21:00:37.885Z,12.82
2022-12-08T21:03:04.822Z,13.10
2022-12-08T21:05:35.568Z,12.90
2022-12-08T21:08:02.949Z,13.98
2022-12-08T21:10:29.744Z,16.08
2022-12-08T21:12:56.652Z,16.90
2022-12-08T21:15:23.562Z,15.03
2022-12-08T21:17:50.642Z,16.55
2022-12-08T21:20:17.747Z,17.35
2022-12-08T21:22:44.695Z,16.52
2022-12-08T21:25:11.659Z,15.15
2022-12-08T21:27:39.156Z,15.20
2022-12-08T21:30:07.448Z,18.27
2022-12-08T21:32:34.509Z,19.75
2022-12-08T21:35:01.650Z,16.60
2022-12-08T21:37:28.632Z,15.27
2022-12-08T21:39:55.650Z,14.20
2022-12-08T21:42:40.910Z,18.65
2022-12-08T21:45:08.356Z,28.33
2022-12-08T21:47:35.162Z,31.48
2022-12-08T21:50:02.002Z,29.88
2022-12-08T21:52:28.827Z,28.93
2022-12-08T21:54:55.853Z,23.45
2022-12-08T21:57:22.860Z,26.50
2022-12-08T21:59:49.733Z,28.45
2022-12-08T22:02:21.999Z,24.08
2022-12-08T22:04:50.135Z,23.93
2022-12-08T22:07:17.137Z,21.77
2022-12-08T22:09:44.125Z,19.58
2022-12-08T22:12:14.224Z,18.40
2022-12-08T22:14:41.124Z,15.55
2022-12-08T22:17:08.073Z,16.90
2022-12-08T22:19:35.223Z,15.10
2022-12-08T22:22:01.979Z,18.17
2022-12-08T22:24:32.088Z,19.38
2022-12-08T22:26:58.862Z,17.55
2022-12-08T22:29:25.741Z,18.23
2022-12-08T22:31:52.542Z,17.77
2022-12-08T22:34:19.587Z,16.45
2022-12-08T22:36:46.486Z,16.98
2022-12-08T22:39:13.278Z,17.33
2022-12-08T22:41:40.048Z,17.43
2022-12-08T22:44:07.632Z,17.80
2022-12-08T22:46:34.501Z,18.05
2022-12-08T22:49:01.654Z,19.50
2022-12-08T22:51:28.467Z,18.27
2022-12-08T22:53:55.483Z,20.57
2022-12-08T22:56:22.298Z,18.52
2022-12-08T22:58:49.344Z,19.58
2022-12-08T23:01:30.046Z,17.90
2022-12-08T23:03:58.468Z,16.83
2022-12-08T23:06:26.975Z,15.60
2022-12-08T23:08:54.824Z,13.75
2022-12-08T23:11:24.736Z,14.20
2022-12-08T23:13:51.604Z,13.50
2022-12-08T23:16:19.088Z,14.70
2022-12-08T23:18:46.916Z,15.10
2022-12-08T23:21:17.239Z,15.05
2022-12-08T23:23:44.175Z,15.00
2022-12-08T23:26:26.881Z,15.18
2022-12-08T23:28:54.053Z,14.82
2022-12-08T23:31:21.647Z,13.37
2022-12-08T23:33:48.706Z,14.70
2022-12-08T23:36:16.572Z,14.05
2022-12-08T23:38:43.863Z,16.95
2022-12-08T23:41:13.173Z,16.98
2022-12-08T23:43:45.436Z,16.93
2022-12-08T23:46:12.824Z,15.50
2022-12-08T23:48:39.987Z,16.63
2022-12-08T23:51:06.865Z,16.45
2022-12-08T23:53:35.109Z,15.23
2022-12-08T23:56:06.270Z,16.23
2022-12-08T23:58:34.774Z,14.75
